Check out our new PWSWeather beta!
PWSweather.com
Personal Weather Stations
Station Observations
828767
Clearbrook, ClearbrookGB PL6

ClearbrookClearbrookGB PL6

Lat: 50.458829, Lon: -4.093856

Elevation: 453

Station Type: Davis Vantage Pro 2 Plus

http://www.dartmoorwalker.co.uk/weather

High Low Average
Temperature 35.2°F1.8°C 31.5°F-0.3°C 33.2°F0.7°C
Dew Point 31.5°F-0.3°C 28.8°F-1.8°C 29.8°F-1.2°C
Winds 15.0 mph 24.1 kmh 1.0 mph 1.6 kmh 7.0 mph SSE11.3 kmh SSE
Wind Gusts 27.0 mph43.5 kmh 9.0 mph14.5 kmh 16.0 mph25.7 kmh
Humidity 90% 83% 87%
Pressure 29.06 in984.1 mb 28.50 in965.1 mb -
Precipitation 2.75 in69.9 mm - -
Hour Temp Dew Point Humidity Winds Wind Gusts Pressure Precip Precip Rate Daily Precip Total
12:00 AM 32.2°F0.1°C 29.5°F-1.4°C 90% 14.0 mph NE22.5 kmh NE 25.0 mph40.2 kmh 28.50 in965.1 mb 0.00 in0.0 mm 0.00 in0.0 mm 0.00 in0.0 mm
12:10 AM 32.0°F0.0°C 29.5°F-1.4°C 90% 13.0 mph NE20.9 kmh NE 24.0 mph38.6 kmh 28.51 in965.5 mb 0.00 in0.0 mm 0.00 in0.0 mm 0.00 in0.0 mm
12:20 AM 31.8°F-0.1°C 29.1°F-1.6°C 90% 13.0 mph NE20.9 kmh NE 23.0 mph37.0 kmh 28.51 in965.5 mb 0.00 in0.0 mm 0.00 in0.0 mm 0.00 in0.0 mm
12:30 AM 31.8°F-0.1°C 29.1°F-1.6°C 90% 13.0 mph NE20.9 kmh NE 21.0 mph33.8 kmh 28.51 in965.5 mb 0.00 in0.0 mm 0.00 in0.0 mm 0.00 in0.0 mm
12:40 AM 31.8°F-0.1°C 29.1°F-1.6°C 90% 13.0 mph NE20.9 kmh NE 22.0 mph35.4 kmh 28.51 in965.5 mb 0.00 in0.0 mm 0.00 in0.0 mm 0.00 in0.0 mm
12:50 AM 31.8°F-0.1°C 29.3°F-1.5°C 90% 13.0 mph NE20.9 kmh NE 25.0 mph40.2 kmh 28.51 in965.5 mb 0.00 in0.0 mm 0.00 in0.0 mm 0.00 in0.0 mm
01:00 AM 31.8°F-0.1°C 29.1°F-1.6°C 90% 12.0 mph NE19.3 kmh NE 20.0 mph32.2 kmh 28.52 in965.8 mb 0.00 in0.0 mm 0.00 in0.0 mm 0.00 in0.0 mm
01:10 AM 31.6°F-0.2°C 29.1°F-1.6°C 90% 12.0 mph NE19.3 kmh NE 21.0 mph33.8 kmh 28.52 in965.8 mb 0.00 in0.0 mm 0.00 in0.0 mm 0.00 in0.0 mm
01:20 AM 31.8°F-0.1°C 29.1°F-1.6°C 90% 11.0 mph NE17.7 kmh NE 20.0 mph32.2 kmh 28.52 in965.8 mb 0.00 in0.0 mm 0.00 in0.0 mm 0.00 in0.0 mm
01:30 AM 31.8°F-0.1°C 29.3°F-1.5°C 90% 12.0 mph NE19.3 kmh NE 20.0 mph32.2 kmh 28.52 in965.8 mb 0.00 in0.0 mm 0.00 in0.0 mm 0.00 in0.0 mm
01:40 AM 31.8°F-0.1°C 29.3°F-1.5°C 90% 12.0 mph NE19.3 kmh NE 21.0 mph33.8 kmh 28.52 in965.8 mb 0.00 in0.0 mm 0.00 in0.0 mm 0.00 in0.0 mm
01:50 AM 31.6°F-0.2°C 29.1°F-1.6°C 90% 12.0 mph NE19.3 kmh NE 20.0 mph32.2 kmh 28.52 in965.8 mb 0.00 in0.0 mm 0.00 in0.0 mm 0.00 in0.0 mm
02:00 AM 31.6°F-0.2°C 29.1°F-1.6°C 90% 11.0 mph NE17.7 kmh NE 18.0 mph29.0 kmh 28.53 in966.1 mb 0.00 in0.0 mm 0.00 in0.0 mm 0.00 in0.0 mm
02:10 AM 31.6°F-0.2°C 29.1°F-1.6°C 90% 11.0 mph NE17.7 kmh NE 20.0 mph32.2 kmh 28.54 in966.5 mb 0.00 in0.0 mm 0.00 in0.0 mm 0.00 in0.0 mm
02:20 AM 31.6°F-0.2°C 29.1°F-1.6°C 90% 10.0 mph NE16.1 kmh NE 18.0 mph29.0 kmh 28.53 in966.1 mb 0.00 in0.0 mm 0.00 in0.0 mm 0.00 in0.0 mm
02:30 AM 31.5°F-0.3°C 28.9°F-1.7°C 90% 11.0 mph NE17.7 kmh NE 20.0 mph32.2 kmh 28.54 in966.5 mb 0.00 in0.0 mm 0.00 in0.0 mm 0.00 in0.0 mm
02:40 AM 31.5°F-0.3°C 28.9°F-1.7°C 90% 11.0 mph NE17.7 kmh NE 19.0 mph30.6 kmh 28.54 in966.5 mb 0.00 in0.0 mm 0.00 in0.0 mm 0.00 in0.0 mm
02:50 AM 31.5°F-0.3°C 28.9°F-1.7°C 90% 11.0 mph NE17.7 kmh NE 21.0 mph33.8 kmh 28.54 in966.5 mb 0.00 in0.0 mm 0.00 in0.0 mm 0.00 in0.0 mm
03:00 AM 31.5°F-0.3°C 28.8°F-1.8°C 90% 12.0 mph NE19.3 kmh NE 17.0 mph27.4 kmh 28.54 in966.5 mb 0.00 in0.0 mm 0.00 in0.0 mm 0.00 in0.0 mm
03:10 AM 31.5°F-0.3°C 28.8°F-1.8°C 90% 11.0 mph NE17.7 kmh NE 20.0 mph32.2 kmh 28.54 in966.5 mb 0.00 in0.0 mm 0.00 in0.0 mm 0.00 in0.0 mm
03:20 AM 31.5°F-0.3°C 28.9°F-1.7°C 90% 12.0 mph NE19.3 kmh NE 22.0 mph35.4 kmh 28.54 in966.5 mb 0.00 in0.0 mm 0.00 in0.0 mm 0.00 in0.0 mm
03:30 AM 31.6°F-0.2°C 28.9°F-1.7°C 90% 13.0 mph NE20.9 kmh NE 23.0 mph37.0 kmh 28.55 in966.8 mb 0.00 in0.0 mm 0.00 in0.0 mm 0.00 in0.0 mm
03:40 AM 31.6°F-0.2°C 29.1°F-1.6°C 90% 13.0 mph NE20.9 kmh NE 22.0 mph35.4 kmh 28.55 in966.8 mb 0.00 in0.0 mm 0.00 in0.0 mm 0.00 in0.0 mm
03:50 AM 31.6°F-0.2°C 28.9°F-1.7°C 90% 12.0 mph NE19.3 kmh NE 21.0 mph33.8 kmh 28.55 in966.8 mb 0.00 in0.0 mm 0.00 in0.0 mm 0.00 in0.0 mm
04:00 AM 31.6°F-0.2°C 28.9°F-1.7°C 90% 11.0 mph NE17.7 kmh NE 18.0 mph29.0 kmh 28.55 in966.8 mb 0.00 in0.0 mm 0.00 in0.0 mm 0.00 in0.0 mm
04:10 AM 31.6°F-0.2°C 28.9°F-1.7°C 90% 11.0 mph NE17.7 kmh NE 20.0 mph32.2 kmh 28.55 in966.8 mb 0.00 in0.0 mm 0.00 in0.0 mm 0.00 in0.0 mm
04:20 AM 31.6°F-0.2°C 28.9°F-1.7°C 90% 10.0 mph NE16.1 kmh NE 18.0 mph29.0 kmh 28.55 in966.8 mb 0.01 in0.3 mm 0.06 in1.5 mm 0.01 in0.3 mm
04:30 AM 31.6°F-0.2°C 29.1°F-1.6°C 90% 9.0 mph NE14.5 kmh NE 18.0 mph29.0 kmh 28.55 in966.8 mb 0.01 in0.3 mm 0.00 in0.0 mm 0.01 in0.3 mm
04:40 AM 31.8°F-0.1°C 29.1°F-1.6°C 90% 10.0 mph NE16.1 kmh NE 20.0 mph32.2 kmh 28.55 in966.8 mb 0.01 in0.3 mm 0.00 in0.0 mm 0.01 in0.3 mm
04:50 AM 31.8°F-0.1°C 29.3°F-1.5°C 90% 12.0 mph NE19.3 kmh NE 20.0 mph32.2 kmh 28.55 in966.8 mb 0.01 in0.3 mm 0.00 in0.0 mm 0.01 in0.3 mm
05:00 AM 31.8°F-0.1°C 29.3°F-1.5°C 90% 12.0 mph NE19.3 kmh NE 20.0 mph32.2 kmh 28.55 in966.8 mb 0.01 in0.3 mm 0.00 in0.0 mm 0.01 in0.3 mm
05:10 AM 31.8°F-0.1°C 28.9°F-1.7°C 89% 12.0 mph NE19.3 kmh NE 25.0 mph40.2 kmh 28.56 in967.2 mb 0.01 in0.3 mm 0.00 in0.0 mm 0.01 in0.3 mm
05:20 AM 31.8°F-0.1°C 28.9°F-1.7°C 89% 12.0 mph NE19.3 kmh NE 26.0 mph41.8 kmh 28.56 in967.2 mb 0.00 in0.0 mm 0.00 in0.0 mm 0.01 in0.3 mm
05:30 AM 31.8°F-0.1°C 28.9°F-1.7°C 89% 13.0 mph NE20.9 kmh NE 27.0 mph43.5 kmh 28.56 in967.2 mb 0.00 in0.0 mm 0.00 in0.0 mm 0.01 in0.3 mm
05:40 AM 31.8°F-0.1°C 28.9°F-1.7°C 89% 14.0 mph NE22.5 kmh NE 25.0 mph40.2 kmh 28.56 in967.2 mb 0.01 in0.3 mm 0.06 in1.5 mm 0.02 in0.5 mm
05:50 AM 31.8°F-0.1°C 28.9°F-1.7°C 89% 15.0 mph NE24.1 kmh NE 27.0 mph43.5 kmh 28.56 in967.2 mb 0.01 in0.3 mm 0.00 in0.0 mm 0.02 in0.5 mm
06:00 AM 31.8°F-0.1°C 28.9°F-1.7°C 89% 14.0 mph NE22.5 kmh NE 23.0 mph37.0 kmh 28.57 in967.5 mb 0.01 in0.3 mm 0.00 in0.0 mm 0.02 in0.5 mm
06:10 AM 31.8°F-0.1°C 28.9°F-1.7°C 89% 13.0 mph NE20.9 kmh NE 22.0 mph35.4 kmh 28.58 in967.8 mb 0.01 in0.3 mm 0.00 in0.0 mm 0.02 in0.5 mm
06:20 AM 31.8°F-0.1°C 28.9°F-1.7°C 89% 11.0 mph NE17.7 kmh NE 19.0 mph30.6 kmh 28.58 in967.8 mb 0.01 in0.3 mm 0.00 in0.0 mm 0.02 in0.5 mm
06:30 AM 31.8°F-0.1°C 28.9°F-1.7°C 89% 10.0 mph NE16.1 kmh NE 18.0 mph29.0 kmh 28.58 in967.8 mb 0.01 in0.3 mm 0.00 in0.0 mm 0.02 in0.5 mm
06:40 AM 31.8°F-0.1°C 28.9°F-1.7°C 89% 11.0 mph NE17.7 kmh NE 19.0 mph30.6 kmh 28.59 in968.2 mb 0.00 in0.0 mm 0.00 in0.0 mm 0.02 in0.5 mm
06:50 AM 31.8°F-0.1°C 28.9°F-1.7°C 89% 10.0 mph NE16.1 kmh NE 18.0 mph29.0 kmh 28.59 in968.2 mb 0.00 in0.0 mm 0.00 in0.0 mm 0.02 in0.5 mm
07:00 AM 31.8°F-0.1°C 28.9°F-1.7°C 89% 11.0 mph NNE17.7 kmh NNE 20.0 mph32.2 kmh 28.60 in968.5 mb 0.01 in0.3 mm 0.01 in0.3 mm 0.03 in0.8 mm
07:10 AM 31.8°F-0.1°C 28.9°F-1.7°C 89% 9.0 mph NE14.5 kmh NE 15.0 mph24.1 kmh 28.60 in968.5 mb 0.01 in0.3 mm 0.00 in0.0 mm 0.03 in0.8 mm
07:20 AM 31.8°F-0.1°C 28.9°F-1.7°C 89% 8.0 mph NNE12.9 kmh NNE 16.0 mph25.7 kmh 28.61 in968.8 mb 0.01 in0.3 mm 0.00 in0.0 mm 0.03 in0.8 mm
07:30 AM 32.0°F0.0°C 29.1°F-1.6°C 89% 5.0 mph N8.0 kmh N 15.0 mph24.1 kmh 28.61 in968.8 mb 0.01 in0.3 mm 0.00 in0.0 mm 0.03 in0.8 mm
07:40 AM 32.2°F0.1°C 29.3°F-1.5°C 89% 4.0 mph NNW6.4 kmh NNW 14.0 mph22.5 kmh 28.62 in969.2 mb 0.01 in0.3 mm 0.00 in0.0 mm 0.03 in0.8 mm
07:50 AM 32.4°F0.2°C 29.5°F-1.4°C 89% 5.0 mph N8.0 kmh N 12.0 mph19.3 kmh 28.63 in969.5 mb 0.01 in0.3 mm 0.00 in0.0 mm 0.03 in0.8 mm
08:00 AM 32.4°F0.2°C 29.5°F-1.4°C 89% 4.0 mph N6.4 kmh N 15.0 mph24.1 kmh 28.64 in969.9 mb 0.00 in0.0 mm 0.00 in0.0 mm 0.03 in0.8 mm
08:10 AM 32.4°F0.2°C 29.5°F-1.4°C 89% 3.0 mph N4.8 kmh N 12.0 mph19.3 kmh 28.64 in969.9 mb 0.00 in0.0 mm 0.00 in0.0 mm 0.03 in0.8 mm
08:20 AM 32.5°F0.3°C 29.7°F-1.3°C 89% 6.0 mph N9.7 kmh N 23.0 mph37.0 kmh 28.64 in969.9 mb 0.01 in0.3 mm 0.06 in1.5 mm 0.04 in1.0 mm
08:30 AM 32.5°F0.3°C 29.5°F-1.4°C 88% 8.0 mph NE12.9 kmh NE 17.0 mph27.4 kmh 28.65 in970.2 mb 0.01 in0.3 mm 0.00 in0.0 mm 0.04 in1.0 mm
08:40 AM 32.5°F0.3°C 29.5°F-1.4°C 88% 3.0 mph NNE4.8 kmh NNE 10.0 mph16.1 kmh 28.66 in970.5 mb 0.01 in0.3 mm 0.00 in0.0 mm 0.04 in1.0 mm
08:50 AM 32.7°F0.4°C 29.5°F-1.4°C 88% 4.0 mph NE6.4 kmh NE 11.0 mph17.7 kmh 28.66 in970.5 mb 0.01 in0.3 mm 0.00 in0.0 mm 0.04 in1.0 mm
09:00 AM 32.7°F0.4°C 29.7°F-1.3°C 88% 6.0 mph NNE9.7 kmh NNE 14.0 mph22.5 kmh 28.67 in970.9 mb 0.02 in0.5 mm 0.01 in0.3 mm 0.05 in1.3 mm
09:10 AM 32.9°F0.5°C 29.7°F-1.3°C 88% 7.0 mph NE11.3 kmh NE 16.0 mph25.7 kmh 28.67 in970.9 mb 0.03 in0.8 mm 0.06 in1.5 mm 0.06 in1.5 mm
09:20 AM 33.1°F0.6°C 29.8°F-1.2°C 88% 6.0 mph NNE9.7 kmh NNE 19.0 mph30.6 kmh 28.67 in970.9 mb 0.05 in1.3 mm 0.12 in3.0 mm 0.09 in2.3 mm
09:30 AM 33.1°F0.6°C 30.2°F-1.0°C 89% 8.0 mph NNE12.9 kmh NNE 16.0 mph25.7 kmh 28.68 in971.2 mb 0.07 in1.8 mm 0.12 in3.0 mm 0.11 in2.8 mm
09:40 AM 33.3°F0.7°C 30.0°F-1.1°C 88% 9.0 mph NNE14.5 kmh NNE 20.0 mph32.2 kmh 28.68 in971.2 mb 0.10 in2.5 mm 0.18 in4.6 mm 0.14 in3.6 mm
09:50 AM 33.3°F0.7°C 30.0°F-1.1°C 88% 7.0 mph NNE11.3 kmh NNE 15.0 mph24.1 kmh 28.68 in971.2 mb 0.12 in3.0 mm 0.12 in3.0 mm 0.16 in4.1 mm
10:00 AM 33.4°F0.8°C 30.2°F-1.0°C 88% 7.0 mph NNE11.3 kmh NNE 14.0 mph22.5 kmh 28.69 in971.6 mb 0.14 in3.6 mm 0.02 in0.5 mm 0.19 in4.8 mm
10:10 AM 33.4°F0.8°C 30.2°F-1.0°C 88% 8.0 mph NNE12.9 kmh NNE 18.0 mph29.0 kmh 28.70 in971.9 mb 0.17 in4.3 mm 0.18 in4.6 mm 0.23 in5.8 mm
10:20 AM 33.6°F0.9°C 30.4°F-0.9°C 88% 8.0 mph NNE12.9 kmh NNE 14.0 mph22.5 kmh 28.70 in971.9 mb 0.18 in4.6 mm 0.06 in1.5 mm 0.27 in6.9 mm
10:30 AM 33.6°F0.9°C 30.2°F-1.0°C 87% 7.0 mph NNE11.3 kmh NNE 14.0 mph22.5 kmh 28.70 in971.9 mb 0.21 in5.3 mm 0.18 in4.6 mm 0.32 in8.1 mm
10:40 AM 33.6°F0.9°C 30.2°F-1.0°C 87% 6.0 mph NNE9.7 kmh NNE 15.0 mph24.1 kmh 28.70 in971.9 mb 0.23 in5.8 mm 0.12 in3.0 mm 0.37 in9.4 mm
10:50 AM 33.8°F1.0°C 30.4°F-0.9°C 87% 8.0 mph NNE12.9 kmh NNE 14.0 mph22.5 kmh 28.71 in972.2 mb 0.50 in12.7 mm 1.62 in41.1 mm 0.66 in16.8 mm
11:00 AM 34.0°F1.1°C 30.4°F-0.9°C 87% 7.0 mph NNE11.3 kmh NNE 16.0 mph25.7 kmh 28.71 in972.2 mb 0.73 in18.5 mm 0.28 in7.1 mm 0.92 in23.4 mm
11:10 AM 34.0°F1.1°C 30.4°F-0.9°C 87% 6.0 mph NNE9.7 kmh NNE 13.0 mph20.9 kmh 28.72 in972.6 mb 0.90 in22.9 mm 1.02 in25.9 mm 1.13 in28.7 mm
11:20 AM 34.0°F1.1°C 30.4°F-0.9°C 87% 6.0 mph N9.7 kmh N 15.0 mph24.1 kmh 28.72 in972.6 mb 1.09 in27.7 mm 1.14 in29.0 mm 1.36 in34.5 mm
11:30 AM 34.0°F1.1°C 30.6°F-0.8°C 87% 8.0 mph N12.9 kmh N 22.0 mph35.4 kmh 28.72 in972.6 mb 1.14 in29.0 mm 0.30 in7.6 mm 1.46 in37.1 mm
11:40 AM 34.2°F1.2°C 30.6°F-0.8°C 87% 8.0 mph NNE12.9 kmh NNE 17.0 mph27.4 kmh 28.72 in972.6 mb 1.16 in29.5 mm 0.12 in3.0 mm 1.53 in38.9 mm
11:50 AM 34.2°F1.2°C 30.6°F-0.8°C 87% 7.0 mph N11.3 kmh N 17.0 mph27.4 kmh 28.72 in972.6 mb 0.94 in23.9 mm 0.00 in0.0 mm 1.60 in40.6 mm
12:00 PM 34.2°F1.2°C 30.7°F-0.7°C 87% 9.0 mph N14.5 kmh N 20.0 mph32.2 kmh 28.72 in972.6 mb 0.73 in18.5 mm 0.00 in0.0 mm 1.67 in42.4 mm
12:10 PM 34.3°F1.3°C 30.9°F-0.6°C 87% 8.0 mph N12.9 kmh N 19.0 mph30.6 kmh 28.73 in972.9 mb 0.59 in15.0 mm 0.00 in0.0 mm 1.72 in43.7 mm
12:20 PM 34.3°F1.3°C 30.9°F-0.6°C 87% 6.0 mph NNE9.7 kmh NNE 18.0 mph29.0 kmh 28.73 in972.9 mb 0.40 in10.2 mm 0.00 in0.0 mm 1.77 in45.0 mm
12:30 PM 34.3°F1.3°C 30.6°F-0.8°C 86% 7.0 mph NNE11.3 kmh NNE 17.0 mph27.4 kmh 28.73 in972.9 mb 0.34 in8.6 mm 0.00 in0.0 mm 1.81 in46.0 mm
12:40 PM 34.3°F1.3°C 30.6°F-0.8°C 86% 6.0 mph N9.7 kmh N 17.0 mph27.4 kmh 28.73 in972.9 mb 0.33 in8.4 mm 0.00 in0.0 mm 1.86 in47.2 mm
12:50 PM 34.5°F1.4°C 30.7°F-0.7°C 86% 6.0 mph N9.7 kmh N 16.0 mph25.7 kmh 28.73 in972.9 mb 0.30 in7.6 mm 0.00 in0.0 mm 1.91 in48.5 mm
01:00 PM 34.7°F1.5°C 30.9°F-0.6°C 86% 5.0 mph N8.0 kmh N 14.0 mph22.5 kmh 28.73 in972.9 mb 0.28 in7.1 mm 0.00 in0.0 mm 1.95 in49.5 mm
01:10 PM 34.9°F1.6°C 31.1°F-0.5°C 86% 4.0 mph N6.4 kmh N 11.0 mph17.7 kmh 28.74 in973.2 mb 0.26 in6.6 mm 0.00 in0.0 mm 1.99 in50.5 mm
01:20 PM 34.9°F1.6°C 31.1°F-0.5°C 86% 5.0 mph N8.0 kmh N 14.0 mph22.5 kmh 28.74 in973.2 mb 0.27 in6.9 mm 0.06 in1.5 mm 2.04 in51.8 mm
01:30 PM 35.1°F1.7°C 31.3°F-0.4°C 86% 5.0 mph N8.0 kmh N 13.0 mph20.9 kmh 28.74 in973.2 mb 0.26 in6.6 mm 0.00 in0.0 mm 2.08 in52.8 mm
01:40 PM 35.1°F1.7°C 31.3°F-0.4°C 86% 5.0 mph N8.0 kmh N 14.0 mph22.5 kmh 28.74 in973.2 mb 0.25 in6.4 mm 0.00 in0.0 mm 2.12 in53.8 mm
01:50 PM 35.2°F1.8°C 31.5°F-0.3°C 86% 6.0 mph N9.7 kmh N 13.0 mph20.9 kmh 28.74 in973.2 mb 0.24 in6.1 mm 0.00 in0.0 mm 2.16 in54.9 mm
02:00 PM 35.2°F1.8°C 31.5°F-0.3°C 86% 7.0 mph N11.3 kmh N 15.0 mph24.1 kmh 28.74 in973.2 mb 0.24 in6.1 mm 0.00 in0.0 mm 2.19 in55.6 mm
02:10 PM 35.2°F1.8°C 31.5°F-0.3°C 86% 5.0 mph N8.0 kmh N 12.0 mph19.3 kmh 28.75 in973.6 mb 0.23 in5.8 mm 0.00 in0.0 mm 2.23 in56.6 mm
02:20 PM 35.2°F1.8°C 31.5°F-0.3°C 86% 6.0 mph N9.7 kmh N 15.0 mph24.1 kmh 28.75 in973.6 mb 0.22 in5.6 mm 0.00 in0.0 mm 2.26 in57.4 mm
02:30 PM 35.2°F1.8°C 31.5°F-0.3°C 86% 5.0 mph N8.0 kmh N 15.0 mph24.1 kmh 28.76 in973.9 mb 0.20 in5.1 mm 0.00 in0.0 mm 2.28 in57.9 mm
02:40 PM 35.2°F1.8°C 31.5°F-0.3°C 86% 4.0 mph N6.4 kmh N 16.0 mph25.7 kmh 28.77 in974.3 mb 0.18 in4.6 mm 0.00 in0.0 mm 2.31 in58.7 mm
02:50 PM 35.2°F1.8°C 31.5°F-0.3°C 86% 7.0 mph N11.3 kmh N 15.0 mph24.1 kmh 28.77 in974.3 mb 0.17 in4.3 mm 0.00 in0.0 mm 2.33 in59.2 mm
03:00 PM 35.1°F1.7°C 31.3°F-0.4°C 86% 7.0 mph N11.3 kmh N 23.0 mph37.0 kmh 28.77 in974.3 mb 0.15 in3.8 mm 0.00 in0.0 mm 2.35 in59.7 mm
03:10 PM 34.9°F1.6°C 31.1°F-0.5°C 86% 7.0 mph N11.3 kmh N 17.0 mph27.4 kmh 28.77 in974.3 mb 0.14 in3.6 mm 0.00 in0.0 mm 2.37 in60.2 mm
03:20 PM 35.1°F1.7°C 31.3°F-0.4°C 86% 7.0 mph N11.3 kmh N 18.0 mph29.0 kmh 28.78 in974.6 mb 0.12 in3.0 mm 0.00 in0.0 mm 2.38 in60.5 mm
03:30 PM 35.1°F1.7°C 31.1°F-0.5°C 85% 6.0 mph N9.7 kmh N 15.0 mph24.1 kmh 28.79 in974.9 mb 0.12 in3.0 mm 0.00 in0.0 mm 2.40 in61.0 mm
03:40 PM 35.1°F1.7°C 30.9°F-0.6°C 85% 7.0 mph N11.3 kmh N 18.0 mph29.0 kmh 28.79 in974.9 mb 0.10 in2.5 mm 0.00 in0.0 mm 2.41 in61.2 mm
03:50 PM 35.1°F1.7°C 31.1°F-0.5°C 85% 8.0 mph N12.9 kmh N 19.0 mph30.6 kmh 28.79 in974.9 mb 0.09 in2.3 mm 0.00 in0.0 mm 2.42 in61.5 mm
04:00 PM 35.1°F1.7°C 30.9°F-0.6°C 85% 8.0 mph N12.9 kmh N 17.0 mph27.4 kmh 28.80 in975.3 mb 0.08 in2.0 mm 0.00 in0.0 mm 2.43 in61.7 mm
04:10 PM 35.1°F1.7°C 30.9°F-0.6°C 85% 7.0 mph N11.3 kmh N 18.0 mph29.0 kmh 28.81 in975.6 mb 0.07 in1.8 mm 0.00 in0.0 mm 2.44 in62.0 mm
04:20 PM 35.1°F1.7°C 30.7°F-0.7°C 84% 6.0 mph N9.7 kmh N 20.0 mph32.2 kmh 28.81 in975.6 mb 0.07 in1.8 mm 0.00 in0.0 mm 2.45 in62.2 mm
04:30 PM 35.1°F1.7°C 30.7°F-0.7°C 84% 7.0 mph N11.3 kmh N 18.0 mph29.0 kmh 28.82 in976.0 mb 0.07 in1.8 mm 0.00 in0.0 mm 2.47 in62.7 mm
04:40 PM 35.1°F1.7°C 30.7°F-0.7°C 84% 7.0 mph N11.3 kmh N 19.0 mph30.6 kmh 28.82 in976.0 mb 0.07 in1.8 mm 0.00 in0.0 mm 2.48 in63.0 mm
04:50 PM 34.9°F1.6°C 30.6°F-0.8°C 84% 7.0 mph N11.3 kmh N 18.0 mph29.0 kmh 28.83 in976.3 mb 0.07 in1.8 mm 0.00 in0.0 mm 2.49 in63.2 mm
05:00 PM 34.9°F1.6°C 30.6°F-0.8°C 84% 7.0 mph N11.3 kmh N 17.0 mph27.4 kmh 28.84 in976.6 mb 0.07 in1.8 mm 0.00 in0.0 mm 2.50 in63.5 mm
05:10 PM 34.9°F1.6°C 30.2°F-1.0°C 83% 7.0 mph N11.3 kmh N 15.0 mph24.1 kmh 28.84 in976.6 mb 0.07 in1.8 mm 0.00 in0.0 mm 2.51 in63.8 mm
05:20 PM 34.7°F1.5°C 30.0°F-1.1°C 83% 6.0 mph N9.7 kmh N 14.0 mph22.5 kmh 28.85 in977.0 mb 0.07 in1.8 mm 0.00 in0.0 mm 2.52 in64.0 mm
05:30 PM 34.5°F1.4°C 30.2°F-1.0°C 84% 5.0 mph N8.0 kmh N 13.0 mph20.9 kmh 28.86 in977.3 mb 0.06 in1.5 mm 0.00 in0.0 mm 2.53 in64.3 mm
05:40 PM 34.5°F1.4°C 30.2°F-1.0°C 84% 5.0 mph N8.0 kmh N 18.0 mph29.0 kmh 28.87 in977.7 mb 0.06 in1.5 mm 0.00 in0.0 mm 2.54 in64.5 mm
05:50 PM 34.5°F1.4°C 30.2°F-1.0°C 84% 3.0 mph N4.8 kmh N 13.0 mph20.9 kmh 28.87 in977.7 mb 0.06 in1.5 mm 0.00 in0.0 mm 2.55 in64.8 mm
06:00 PM 34.2°F1.2°C 29.8°F-1.2°C 84% 3.0 mph NW4.8 kmh NW 12.0 mph19.3 kmh 28.88 in978.0 mb 0.06 in1.5 mm 0.00 in0.0 mm 2.56 in65.0 mm
06:10 PM 34.0°F1.1°C 30.0°F-1.1°C 85% 4.0 mph NW6.4 kmh NW 11.0 mph17.7 kmh 28.88 in978.0 mb 0.05 in1.3 mm 0.00 in0.0 mm 2.56 in65.0 mm
06:20 PM 34.0°F1.1°C 30.0°F-1.1°C 85% 4.0 mph NNW6.4 kmh NNW 11.0 mph17.7 kmh 28.89 in978.3 mb 0.05 in1.3 mm 0.00 in0.0 mm 2.57 in65.3 mm
06:30 PM 34.0°F1.1°C 30.0°F-1.1°C 85% 4.0 mph NNW6.4 kmh NNW 13.0 mph20.9 kmh 28.89 in978.3 mb 0.05 in1.3 mm 0.00 in0.0 mm 2.58 in65.5 mm
06:40 PM 34.0°F1.1°C 29.8°F-1.2°C 85% 4.0 mph NNW6.4 kmh NNW 15.0 mph24.1 kmh 28.90 in978.7 mb 0.05 in1.3 mm 0.00 in0.0 mm 2.59 in65.8 mm
06:50 PM 34.0°F1.1°C 30.2°F-1.0°C 86% 4.0 mph NNW6.4 kmh NNW 12.0 mph19.3 kmh 28.91 in979.0 mb 0.04 in1.0 mm 0.00 in0.0 mm 2.59 in65.8 mm
07:00 PM 33.8°F1.0°C 29.8°F-1.2°C 85% 4.0 mph NNW6.4 kmh NNW 14.0 mph22.5 kmh 28.91 in979.0 mb 0.04 in1.0 mm 0.00 in0.0 mm 2.60 in66.0 mm
07:10 PM 33.8°F1.0°C 30.0°F-1.1°C 86% 5.0 mph NNW8.0 kmh NNW 20.0 mph32.2 kmh 28.92 in979.3 mb 0.03 in0.8 mm 0.00 in0.0 mm 2.60 in66.0 mm
07:20 PM 33.6°F0.9°C 29.8°F-1.2°C 86% 3.0 mph NW4.8 kmh NW 11.0 mph17.7 kmh 28.92 in979.3 mb 0.04 in1.0 mm 0.06 in1.5 mm 2.61 in66.3 mm
07:30 PM 33.6°F0.9°C 29.8°F-1.2°C 86% 3.0 mph NW4.8 kmh NW 11.0 mph17.7 kmh 28.93 in979.7 mb 0.04 in1.0 mm 0.00 in0.0 mm 2.62 in66.5 mm
07:40 PM 33.6°F0.9°C 29.8°F-1.2°C 86% 4.0 mph NW6.4 kmh NW 16.0 mph25.7 kmh 28.93 in979.7 mb 0.03 in0.8 mm 0.00 in0.0 mm 2.62 in66.5 mm
07:50 PM 33.6°F0.9°C 29.8°F-1.2°C 86% 3.0 mph NW4.8 kmh NW 12.0 mph19.3 kmh 28.94 in980.0 mb 0.04 in1.0 mm 0.06 in1.5 mm 2.63 in66.8 mm
08:00 PM 33.4°F0.8°C 29.8°F-1.2°C 86% 3.0 mph NNW4.8 kmh NNW 11.0 mph17.7 kmh 28.94 in980.0 mb 0.03 in0.8 mm 0.00 in0.0 mm 2.63 in66.8 mm
08:10 PM 33.4°F0.8°C 29.8°F-1.2°C 86% 3.0 mph NNW4.8 kmh NNW 12.0 mph19.3 kmh 28.95 in980.4 mb 0.04 in1.0 mm 0.06 in1.5 mm 2.64 in67.1 mm
08:20 PM 33.4°F0.8°C 29.8°F-1.2°C 86% 3.0 mph NW4.8 kmh NW 12.0 mph19.3 kmh 28.95 in980.4 mb 0.04 in1.0 mm 0.00 in0.0 mm 2.65 in67.3 mm
08:30 PM 33.3°F0.7°C 29.5°F-1.4°C 86% 2.0 mph NNW3.2 kmh NNW 10.0 mph16.1 kmh 28.96 in980.7 mb 0.03 in0.8 mm 0.00 in0.0 mm 2.65 in67.3 mm
08:40 PM 33.1°F0.6°C 29.3°F-1.5°C 86% 1.0 mph NW1.6 kmh NW 9.0 mph14.5 kmh 28.97 in981.0 mb 0.03 in0.8 mm 0.00 in0.0 mm 2.65 in67.3 mm
08:50 PM 32.9°F0.5°C 29.1°F-1.6°C 86% 2.0 mph NNW3.2 kmh NNW 12.0 mph19.3 kmh 28.97 in981.0 mb 0.03 in0.8 mm 0.00 in0.0 mm 2.66 in67.6 mm
09:00 PM 32.9°F0.5°C 29.5°F-1.4°C 87% 2.0 mph NNW3.2 kmh NNW 10.0 mph16.1 kmh 28.98 in981.4 mb 0.02 in0.5 mm 0.00 in0.0 mm 2.66 in67.6 mm
09:10 PM 33.1°F0.6°C 29.5°F-1.4°C 87% 3.0 mph NW4.8 kmh NW 13.0 mph20.9 kmh 28.99 in981.7 mb 0.02 in0.5 mm 0.00 in0.0 mm 2.66 in67.6 mm
09:20 PM 33.1°F0.6°C 29.5°F-1.4°C 87% 3.0 mph NW4.8 kmh NW 11.0 mph17.7 kmh 28.99 in981.7 mb 0.02 in0.5 mm 0.00 in0.0 mm 2.67 in67.8 mm
09:30 PM 33.1°F0.6°C 29.7°F-1.3°C 87% 3.0 mph NNW4.8 kmh NNW 14.0 mph22.5 kmh 29.00 in982.1 mb 0.02 in0.5 mm 0.00 in0.0 mm 2.67 in67.8 mm
09:40 PM 33.3°F0.7°C 29.5°F-1.4°C 86% 5.0 mph NNW8.0 kmh NNW 20.0 mph32.2 kmh 29.00 in982.1 mb 0.03 in0.8 mm 0.06 in1.5 mm 2.68 in68.1 mm
09:50 PM 33.3°F0.7°C 29.5°F-1.4°C 86% 3.0 mph NW4.8 kmh NW 11.0 mph17.7 kmh 29.01 in982.4 mb 0.02 in0.5 mm 0.00 in0.0 mm 2.68 in68.1 mm
10:00 PM 33.1°F0.6°C 29.3°F-1.5°C 86% 3.0 mph NNW4.8 kmh NNW 12.0 mph19.3 kmh 29.02 in982.7 mb 0.03 in0.8 mm 0.01 in0.3 mm 2.69 in68.3 mm
10:10 PM 32.9°F0.5°C 29.5°F-1.4°C 87% 3.0 mph NW4.8 kmh NW 10.0 mph16.1 kmh 29.02 in982.7 mb 0.03 in0.8 mm 0.00 in0.0 mm 2.69 in68.3 mm
10:20 PM 32.7°F0.4°C 29.3°F-1.5°C 87% 2.0 mph NW3.2 kmh NW 9.0 mph14.5 kmh 29.02 in982.7 mb 0.03 in0.8 mm 0.00 in0.0 mm 2.70 in68.6 mm
10:30 PM 32.7°F0.4°C 29.3°F-1.5°C 87% 3.0 mph NW4.8 kmh NW 9.0 mph14.5 kmh 29.03 in983.1 mb 0.04 in1.0 mm 0.06 in1.5 mm 2.71 in68.8 mm
10:40 PM 32.7°F0.4°C 29.3°F-1.5°C 87% 3.0 mph NNW4.8 kmh NNW 10.0 mph16.1 kmh 29.03 in983.1 mb 0.03 in0.8 mm 0.00 in0.0 mm 2.71 in68.8 mm
10:50 PM 32.7°F0.4°C 29.3°F-1.5°C 87% 4.0 mph NNW6.4 kmh NNW 12.0 mph19.3 kmh 29.04 in983.4 mb 0.04 in1.0 mm 0.06 in1.5 mm 2.72 in69.1 mm
11:00 PM 32.7°F0.4°C 29.3°F-1.5°C 87% 3.0 mph NNW4.8 kmh NNW 10.0 mph16.1 kmh 29.04 in983.4 mb 0.04 in1.0 mm 0.00 in0.0 mm 2.73 in69.3 mm
11:10 PM 32.5°F0.3°C 29.1°F-1.6°C 87% 2.0 mph NNW3.2 kmh NNW 15.0 mph24.1 kmh 29.04 in983.4 mb 0.03 in0.8 mm 0.00 in0.0 mm 2.73 in69.3 mm
11:20 PM 32.5°F0.3°C 29.1°F-1.6°C 87% 4.0 mph NNW6.4 kmh NNW 14.0 mph22.5 kmh 29.05 in983.7 mb 0.04 in1.0 mm 0.06 in1.5 mm 2.74 in69.6 mm
11:30 PM 32.5°F0.3°C 29.1°F-1.6°C 87% 4.0 mph N6.4 kmh N 10.0 mph16.1 kmh 29.05 in983.7 mb 0.03 in0.8 mm 0.00 in0.0 mm 2.74 in69.6 mm
11:40 PM 32.4°F0.2°C 28.9°F-1.7°C 87% 3.0 mph N4.8 kmh N 10.0 mph16.1 kmh 29.05 in983.7 mb 0.04 in1.0 mm 0.06 in1.5 mm 2.75 in69.9 mm
11:50 PM 32.4°F0.2°C 28.9°F-1.7°C 87% 4.0 mph N6.4 kmh N 12.0 mph19.3 kmh 29.06 in984.1 mb 0.03 in0.8 mm 0.00 in0.0 mm 2.75 in69.9 mm